sensor_id;sensor_type;location;lat;lon;timestamp;pressure;altitude;pressure_sealevel;temperature;humidity
75640;BME280;64233;51.486;6.332;2023-10-31T00:00:32;99874.16;;;9.47;100.00
75640;BME280;64233;51.486;6.332;2023-10-31T00:02:57;99874.38;;;9.35;100.00
75640;BME280;64233;51.486;6.332;2023-10-31T00:05:23;99878.38;;;9.33;100.00
75640;BME280;64233;51.486;6.332;2023-10-31T00:07:48;99875.97;;;9.31;100.00
75640;BME280;64233;51.486;6.332;2023-10-31T00:10:13;99869.28;;;9.28;100.00
75640;BME280;64233;51.486;6.332;2023-10-31T00:12:38;99887.75;;;9.25;100.00
75640;BME280;64233;51.486;6.332;2023-10-31T00:15:05;99881.84;;;9.18;100.00
75640;BME280;64233;51.486;6.332;2023-10-31T00:17:30;99888.81;;;9.19;100.00
75640;BME280;64233;51.486;6.332;2023-10-31T00:19:55;99892.25;;;9.14;100.00
75640;BME280;64233;51.486;6.332;2023-10-31T00:22:21;99893.31;;;9.08;100.00
75640;BME280;64233;51.486;6.332;2023-10-31T00:24:47;99899.22;;;9.05;100.00
75640;BME280;64233;51.486;6.332;2023-10-31T00:27:13;99896.78;;;9.03;100.00
75640;BME280;64233;51.486;6.332;2023-10-31T00:29:39;99895.97;;;8.98;100.00
75640;BME280;64233;51.486;6.332;2023-10-31T00:32:05;99895.69;;;8.99;100.00
75640;BME280;64233;51.486;6.332;2023-10-31T00:34:30;99899.41;;;8.93;100.00
75640;BME280;64233;51.486;6.332;2023-10-31T00:36:56;99901.84;;;8.94;100.00
75640;BME280;64233;51.486;6.332;2023-10-31T00:39:21;99907.75;;;9.02;100.00
75640;BME280;64233;51.486;6.332;2023-10-31T00:41:47;99910.19;;;9.03;100.00
75640;BME280;64233;51.486;6.332;2023-10-31T00:44:12;99904.28;;;9.06;100.00
75640;BME280;64233;51.486;6.332;2023-10-31T00:46:38;99909.91;;;9.05;100.00
75640;BME280;64233;51.486;6.332;2023-10-31T00:49:03;99919.84;;;9.09;100.00
75640;BME280;64233;51.486;6.332;2023-10-31T00:51:29;99922.81;;;9.13;100.00
75640;BME280;64233;51.486;6.332;2023-10-31T00:53:54;99916.34;;;9.14;100.00
75640;BME280;64233;51.486;6.332;2023-10-31T00:56:19;99920.66;;;9.15;100.00
75640;BME280;64233;51.486;6.332;2023-10-31T00:58:45;99924.13;;;9.16;100.00
75640;BME280;64233;51.486;6.332;2023-10-31T01:01:10;99926.31;;;9.19;100.00
75640;BME280;64233;51.486;6.332;2023-10-31T01:03:35;99928.72;;;9.20;100.00
75640;BME280;64233;51.486;6.332;2023-10-31T01:06:01;99941.03;;;9.21;100.00
75640;BME280;64233;51.486;6.332;2023-10-31T01:08:26;99935.66;;;9.21;100.00
75640;BME280;64233;51.486;6.332;2023-10-31T01:10:51;99943.69;;;9.21;100.00
75640;BME280;64233;51.486;6.332;2023-10-31T01:13:17;99951.22;;;9.24;100.00
75640;BME280;64233;51.486;6.332;2023-10-31T01:15:42;99953.09;;;9.24;100.00
75640;BME280;64233;51.486;6.332;2023-10-31T01:18:07;99953.09;;;9.24;100.00
75640;BME280;64233;51.486;6.332;2023-10-31T01:20:33;99948.00;;;9.22;100.00
75640;BME280;64233;51.486;6.332;2023-10-31T01:23:01;99955.50;;;9.20;100.00
75640;BME280;64233;51.486;6.332;2023-10-31T01:25:26;99962.22;;;9.23;100.00
75640;BME280;64233;51.486;6.332;2023-10-31T01:27:52;99949.31;;;9.20;100.00
75640;BME280;64233;51.486;6.332;2023-10-31T01:30:17;99958.44;;;9.19;100.00
75640;BME280;64233;51.486;6.332;2023-10-31T01:32:42;99961.13;;;9.19;100.00
75640;BME280;64233;51.486;6.332;2023-10-31T01:35:07;99968.06;;;9.20;100.00
75640;BME280;64233;51.486;6.332;2023-10-31T01:37:33;99967.25;;;9.19;100.00
75640;BME280;64233;51.486;6.332;2023-10-31T01:39:58;99972.88;;;9.18;100.00
75640;BME280;64233;51.486;6.332;2023-10-31T01:42:23;99975.03;;;9.21;100.00
75640;BME280;64233;51.486;6.332;2023-10-31T01:44:49;99980.88;;;9.12;100.00
75640;BME280;64233;51.486;6.332;2023-10-31T01:47:14;99983.03;;;9.16;100.00
75640;BME280;64233;51.486;6.332;2023-10-31T01:49:40;99981.44;;;9.15;100.00
75640;BME280;64233;51.486;6.332;2023-10-31T01:52:06;99984.09;;;9.09;100.00
75640;BME280;64233;51.486;6.332;2023-10-31T01:54:33;99992.69;;;9.11;100.00
75640;BME280;64233;51.486;6.332;2023-10-31T01:56:59;99981.16;;;9.11;100.00
75640;BME280;64233;51.486;6.332;2023-10-31T01:59:26;99998.81;;;9.12;100.00
75640;BME280;64233;51.486;6.332;2023-10-31T02:01:52;100002.03;;;9.09;100.00
75640;BME280;64233;51.486;6.332;2023-10-31T02:04:17;100017.53;;;9.07;100.00
75640;BME280;64233;51.486;6.332;2023-10-31T02:06:43;100011.38;;;9.06;100.00
75640;BME280;64233;51.486;6.332;2023-10-31T02:09:08;100020.47;;;9.05;100.00
75640;BME280;64233;51.486;6.332;2023-10-31T02:11:34;100030.41;;;9.10;100.00
75640;BME280;64233;51.486;6.332;2023-10-31T02:14:00;100026.41;;;9.12;100.00
75640;BME280;64233;51.486;6.332;2023-10-31T02:16:26;100023.44;;;9.09;100.00
75640;BME280;64233;51.486;6.332;2023-10-31T02:18:51;100027.47;;;9.11;100.00
75640;BME280;64233;51.486;6.332;2023-10-31T02:21:19;100028.03;;;9.13;100.00
75640;BME280;64233;51.486;6.332;2023-10-31T02:24:03;100042.19;;;9.14;100.00
75640;BME280;64233;51.486;6.332;2023-10-31T02:26:33;100037.41;;;9.16;100.00
75640;BME280;64233;51.486;6.332;2023-10-31T02:28:59;100036.84;;;9.14;100.00
75640;BME280;64233;51.486;6.332;2023-10-31T02:31:25;100039.78;;;9.12;100.00
75640;BME280;64233;51.486;6.332;2023-10-31T02:33:50;100040.59;;;9.13;100.00
75640;BME280;64233;51.486;6.332;2023-10-31T02:36:16;100040.03;;;9.11;100.00
75640;BME280;64233;51.486;6.332;2023-10-31T02:38:41;100043.78;;;9.10;100.00
75640;BME280;64233;51.486;6.332;2023-10-31T02:41:06;100047.53;;;9.09;100.00
75640;BME280;64233;51.486;6.332;2023-10-31T02:43:32;100051.00;;;9.09;100.00
75640;BME280;64233;51.486;6.332;2023-10-31T02:45:57;100053.94;;;9.08;100.00
75640;BME280;64233;51.486;6.332;2023-10-31T02:48:23;100058.00;;;9.10;100.00
75640;BME280;64233;51.486;6.332;2023-10-31T02:50:50;100060.41;;;9.12;100.00
75640;BME280;64233;51.486;6.332;2023-10-31T02:53:15;100067.38;;;9.13;100.00
75640;BME280;64233;51.486;6.332;2023-10-31T02:55:40;100067.13;;;9.15;100.00
75640;BME280;64233;51.486;6.332;2023-10-31T02:58:06;100063.88;;;9.12;100.00
75640;BME280;64233;51.486;6.332;2023-10-31T03:00:31;100058.53;;;9.12;100.00
75640;BME280;64233;51.486;6.332;2023-10-31T03:02:56;100056.09;;;9.11;100.00
75640;BME280;64233;51.486;6.332;2023-10-31T03:05:21;100059.88;;;9.15;100.00
75640;BME280;64233;51.486;6.332;2023-10-31T03:07:47;100058.25;;;9.14;100.00
75640;BME280;64233;51.486;6.332;2023-10-31T03:10:12;100056.94;;;9.17;100.00
75640;BME280;64233;51.486;6.332;2023-10-31T03:12:37;100054.84;;;9.19;100.00
75640;BME280;64233;51.486;6.332;2023-10-31T03:15:03;100057.78;;;9.17;100.00
75640;BME280;64233;51.486;6.332;2023-10-31T03:17:29;100054.84;;;9.19;100.00
75640;BME280;64233;51.486;6.332;2023-10-31T03:19:55;100047.59;;;9.19;100.00
75640;BME280;64233;51.486;6.332;2023-10-31T03:22:20;100055.09;;;9.17;100.00
75640;BME280;64233;51.486;6.332;2023-10-31T03:24:45;100056.44;;;9.20;100.00
75640;BME280;64233;51.486;6.332;2023-10-31T03:27:11;100054.53;;;9.15;100.00
75640;BME280;64233;51.486;6.332;2023-10-31T03:29:36;100054.56;;;9.20;100.00
75640;BME280;64233;51.486;6.332;2023-10-31T03:32:01;100044.91;;;9.19;100.00
75640;BME280;64233;51.486;6.332;2023-10-31T03:34:27;100052.16;;;9.19;100.00
75640;BME280;64233;51.486;6.332;2023-10-31T03:36:52;100060.47;;;9.22;100.00
75640;BME280;64233;51.486;6.332;2023-10-31T03:39:18;100054.06;;;9.23;100.00
75640;BME280;64233;51.486;6.332;2023-10-31T03:41:43;100056.72;;;9.23;100.00
75640;BME280;64233;51.486;6.332;2023-10-31T03:44:09;100054.06;;;9.23;100.00
75640;BME280;64233;51.486;6.332;2023-10-31T03:46:34;100061.56;;;9.26;100.00
75640;BME280;64233;51.486;6.332;2023-10-31T03:48:59;100055.16;;;9.27;100.00
75640;BME280;64233;51.486;6.332;2023-10-31T03:51:24;100073.06;;;9.27;100.00
75640;BME280;64233;51.486;6.332;2023-10-31T03:53:50;100069.59;;;9.26;100.00
75640;BME280;64233;51.486;6.332;2023-10-31T03:56:15;100069.34;;;9.28;100.00
75640;BME280;64233;51.486;6.332;2023-10-31T03:58:42;100073.31;;;9.25;100.00
75640;BME280;64233;51.486;6.332;2023-10-31T04:01:08;100074.69;;;9.28;100.00
75640;BME280;64233;51.486;6.332;2023-10-31T04:03:33;100077.59;;;9.21;100.00
75640;BME280;64233;51.486;6.332;2023-10-31T04:05:58;100082.94;;;9.21;100.00
75640;BME280;64233;51.486;6.332;2023-10-31T04:08:23;100083.75;;;9.22;100.00
75640;BME280;64233;51.486;6.332;2023-10-31T04:10:49;100084.31;;;9.24;100.00
75640;BME280;64233;51.486;6.332;2023-10-31T04:13:14;100082.97;;;9.26;100.00
75640;BME280;64233;51.486;6.332;2023-10-31T04:15:39;100089.13;;;9.27;100.00
75640;BME280;64233;51.486;6.332;2023-10-31T04:18:04;100091.81;;;9.27;100.00
75640;BME280;64233;51.486;6.332;2023-10-31T04:20:30;100095.84;;;9.29;100.00
75640;BME280;64233;51.486;6.332;2023-10-31T04:22:55;100092.63;;;9.27;100.00
75640;BME280;64233;51.486;6.332;2023-10-31T04:25:21;100101.47;;;9.28;100.00
75640;BME280;64233;51.486;6.332;2023-10-31T04:27:46;100098.78;;;9.28;100.00
75640;BME280;64233;51.486;6.332;2023-10-31T04:30:11;100096.91;;;9.28;100.00
75640;BME280;64233;51.486;6.332;2023-10-31T04:32:36;100098.78;;;9.28;100.00
75640;BME280;64233;51.486;6.332;2023-10-31T04:35:02;100110.88;;;9.30;100.00
75640;BME280;64233;51.486;6.332;2023-10-31T04:37:27;100107.38;;;9.30;100.00
75640;BME280;64233;51.486;6.332;2023-10-31T04:39:52;100108.44;;;9.29;100.00
75640;BME280;64233;51.486;6.332;2023-10-31T04:42:18;100112.97;;;9.28;100.00
75640;BME280;64233;51.486;6.332;2023-10-31T04:44:45;100115.44;;;9.30;100.00
75640;BME280;64233;51.486;6.332;2023-10-31T04:47:10;100114.59;;;9.29;100.00
75640;BME280;64233;51.486;6.332;2023-10-31T04:49:36;100118.91;;;9.30;100.00
75640;BME280;64233;51.486;6.332;2023-10-31T04:52:01;100117.00;;;9.31;100.00
75640;BME280;64233;51.486;6.332;2023-10-31T04:54:26;100119.94;;;9.29;100.00
75640;BME280;64233;51.486;6.332;2023-10-31T04:56:51;100119.16;;;9.29;100.00
75640;BME280;64233;51.486;6.332;2023-10-31T04:59:17;100129.88;;;9.29;100.00
75640;BME280;64233;51.486;6.332;2023-10-31T05:01:48;100136.28;;;9.28;100.00
75640;BME280;64233;51.486;6.332;2023-10-31T05:04:14;100127.72;;;9.26;100.00
75640;BME280;64233;51.486;6.332;2023-10-31T05:06:39;100131.44;;;9.25;100.00
75640;BME280;64233;51.486;6.332;2023-10-31T05:09:05;100140.53;;;9.24;100.00
75640;BME280;64233;51.486;6.332;2023-10-31T05:11:30;100132.50;;;9.19;100.00
75640;BME280;64233;51.486;6.332;2023-10-31T05:13:55;100137.03;;;9.18;100.00
75640;BME280;64233;51.486;6.332;2023-10-31T05:16:20;100147.19;;;9.16;100.00
75640;BME280;64233;51.486;6.332;2023-10-31T05:18:46;100148.00;;;9.17;100.00
75640;BME280;64233;51.486;6.332;2023-10-31T05:21:11;100149.59;;;9.18;100.00
75640;BME280;64233;51.486;6.332;2023-10-31T05:23:36;100149.09;;;9.21;100.00
75640;BME280;64233;51.486;6.332;2023-10-31T05:26:05;100152.06;;;9.24;100.00
75640;BME280;64233;51.486;6.332;2023-10-31T05:28:30;100156.09;;;9.27;100.00
75640;BME280;64233;51.486;6.332;2023-10-31T05:30:55;100152.09;;;9.29;100.00
75640;BME280;64233;51.486;6.332;2023-10-31T05:33:21;100142.69;;;9.27;100.00
75640;BME280;64233;51.486;6.332;2023-10-31T05:35:48;100145.13;;;9.28;100.00
75640;BME280;64233;51.486;6.332;2023-10-31T05:38:13;100155.81;;;9.28;100.00
75640;BME280;64233;51.486;6.332;2023-10-31T05:40:38;100157.97;;;9.26;100.00
75640;BME280;64233;51.486;6.332;2023-10-31T05:43:04;100158.50;;;9.23;100.00
75640;BME280;64233;51.486;6.332;2023-10-31T05:45:30;100163.03;;;9.23;100.00
75640;BME280;64233;51.486;6.332;2023-10-31T05:47:55;100154.19;;;9.22;100.00
75640;BME280;64233;51.486;6.332;2023-10-31T05:50:20;100164.38;;;9.25;100.00
75640;BME280;64233;51.486;6.332;2023-10-31T05:52:46;100170.25;;;9.22;100.00
75640;BME280;64233;51.486;6.332;2023-10-31T05:55:11;100174.00;;;9.21;100.00
75640;BME280;64233;51.486;6.332;2023-10-31T05:57:37;100180.44;;;9.20;100.00
75640;BME280;64233;51.486;6.332;2023-10-31T06:00:02;100184.69;;;9.21;100.00
75640;BME280;64233;51.486;6.332;2023-10-31T06:02:27;100180.97;;;9.22;100.00
75640;BME280;64233;51.486;6.332;2023-10-31T06:04:55;100186.88;;;9.24;100.00
75640;BME280;64233;51.486;6.332;2023-10-31T06:07:20;100188.75;;;9.24;100.00
75640;BME280;64233;51.486;6.332;2023-10-31T06:09:45;100191.41;;;9.24;100.00
75640;BME280;64233;51.486;6.332;2023-10-31T06:12:10;100191.41;;;9.24;100.00
75640;BME280;64233;51.486;6.332;2023-10-31T06:14:36;100185.53;;;9.22;100.00
75640;BME280;64233;51.486;6.332;2023-10-31T06:17:02;100191.59;;;9.12;100.00
75640;BME280;64233;51.486;6.332;2023-10-31T06:19:27;100191.28;;;9.08;100.00
75640;BME280;64233;51.486;6.332;2023-10-31T06:21:52;100191.56;;;9.07;100.00
75640;BME280;64233;51.486;6.332;2023-10-31T06:24:17;100185.91;;;9.03;100.00
75640;BME280;64233;51.486;6.332;2023-10-31T06:26:43;100189.13;;;9.05;100.00
75640;BME280;64233;51.486;6.332;2023-10-31T06:29:08;100187.28;;;9.06;100.00
75640;BME280;64233;51.486;6.332;2023-10-31T06:31:33;100189.97;;;9.06;100.00
75640;BME280;64233;51.486;6.332;2023-10-31T06:33:59;100190.75;;;9.06;100.00
75640;BME280;64233;51.486;6.332;2023-10-31T06:36:24;100200.16;;;9.09;100.00
75640;BME280;64233;51.486;6.332;2023-10-31T06:38:49;100201.22;;;9.08;100.00
75640;BME280;64233;51.486;6.332;2023-10-31T06:41:15;100208.47;;;9.12;100.00
75640;BME280;64233;51.486;6.332;2023-10-31T06:43:41;100214.91;;;9.11;100.00
75640;BME280;64233;51.486;6.332;2023-10-31T06:46:06;100214.91;;;9.11;100.00
75640;BME280;64233;51.486;6.332;2023-10-31T06:48:32;100224.28;;;9.14;100.00
75640;BME280;64233;51.486;6.332;2023-10-31T06:50:57;100234.19;;;9.13;100.00
75640;BME280;64233;51.486;6.332;2023-10-31T06:53:22;100237.66;;;9.14;100.00
75640;BME280;64233;51.486;6.332;2023-10-31T06:55:48;100246.25;;;9.16;100.00
75640;BME280;64233;51.486;6.332;2023-10-31T06:58:13;100236.91;;;9.19;100.00
75640;BME280;64233;51.486;6.332;2023-10-31T07:00:39;100241.16;;;9.15;100.00
75640;BME280;64233;51.486;6.332;2023-10-31T07:03:04;100251.63;;;9.16;100.00
75640;BME280;64233;51.486;6.332;2023-10-31T07:05:34;100253.25;;;9.17;100.00
75640;BME280;64233;51.486;6.332;2023-10-31T07:07:59;100263.44;;;9.20;100.00
75640;BME280;64233;51.486;6.332;2023-10-31T07:10:25;100266.38;;;9.19;100.00
75640;BME280;64233;51.486;6.332;2023-10-31T07:12:53;100263.13;;;9.17;100.00
75640;BME280;64233;51.486;6.332;2023-10-31T07:15:18;100262.03;;;9.12;100.00
75640;BME280;64233;51.486;6.332;2023-10-31T07:17:44;100273.03;;;9.16;100.00
75640;BME280;64233;51.486;6.332;2023-10-31T07:20:09;100279.19;;;9.17;100.00
75640;BME280;64233;51.486;6.332;2023-10-31T07:22:35;100288.34;;;9.21;100.00
75640;BME280;64233;51.486;6.332;2023-10-31T07:25:01;100286.97;;;9.18;100.00
75640;BME280;64233;51.486;6.332;2023-10-31T07:27:29;100286.97;;;9.18;100.00
75640;BME280;64233;51.486;6.332;2023-10-31T07:29:54;100292.34;;;9.18;100.00
75640;BME280;64233;51.486;6.332;2023-10-31T07:32:20;100298.00;;;9.22;100.00
75640;BME280;64233;51.486;6.332;2023-10-31T07:34:45;100293.41;;;9.17;100.00
75640;BME280;64233;51.486;6.332;2023-10-31T07:37:10;100296.63;;;9.19;100.00
75640;BME280;64233;51.486;6.332;2023-10-31T07:39:36;100290.97;;;9.16;100.00
75640;BME280;64233;51.486;6.332;2023-10-31T07:42:01;100288.28;;;9.16;100.00
75640;BME280;64233;51.486;6.332;2023-10-31T07:44:26;100292.59;;;9.17;100.00
75640;BME280;64233;51.486;6.332;2023-10-31T07:46:52;100288.06;;;9.17;100.00
75640;BME280;64233;51.486;6.332;2023-10-31T07:49:17;100293.41;;;9.17;100.00
75640;BME280;64233;51.486;6.332;2023-10-31T07:51:42;100285.84;;;9.14;100.00
75640;BME280;64233;51.486;6.332;2023-10-31T07:54:07;100285.56;;;9.10;100.00
75640;BME280;64233;51.486;6.332;2023-10-31T07:56:34;100283.19;;;9.14;100.00
75640;BME280;64233;51.486;6.332;2023-10-31T07:59:01;100285.91;;;9.19;100.00
75640;BME280;64233;51.486;6.332;2023-10-31T08:01:27;100288.09;;;9.22;100.00
75640;BME280;64233;51.486;6.332;2023-10-31T08:03:53;100290.81;;;9.27;100.00
75640;BME280;64233;51.486;6.332;2023-10-31T08:06:18;100286.84;;;9.30;100.00
75640;BME280;64233;51.486;6.332;2023-10-31T08:08:43;100292.53;;;9.39;100.00
75640;BME280;64233;51.486;6.332;2023-10-31T08:11:09;100290.09;;;9.37;100.00
75640;BME280;64233;51.486;6.332;2023-10-31T08:13:38;100282.03;;;9.32;100.00
75640;BME280;64233;51.486;6.332;2023-10-31T08:16:05;100271.50;;;9.25;100.00
75640;BME280;64233;51.486;6.332;2023-10-31T08:18:31;100275.53;;;9.23;100.00
75640;BME280;64233;51.486;6.332;2023-10-31T08:20:56;100272.03;;;9.22;100.00
75640;BME280;64233;51.486;6.332;2023-10-31T08:23:21;100272.34;;;9.26;100.00
75640;BME280;64233;51.486;6.332;2023-10-31T08:25:47;100273.78;;;9.39;100.00
75640;BME280;64233;51.486;6.332;2023-10-31T08:28:12;100267.97;;;9.52;100.00
75640;BME280;64233;51.486;6.332;2023-10-31T08:30:38;100269.66;;;9.58;100.00
75640;BME280;64233;51.486;6.332;2023-10-31T08:33:04;100270.19;;;9.60;100.00
75640;BME280;64233;51.486;6.332;2023-10-31T08:35:29;100265.69;;;9.66;100.00
75640;BME280;64233;51.486;6.332;2023-10-31T08:37:55;100262.41;;;9.59;100.00
75640;BME280;64233;51.486;6.332;2023-10-31T08:40:20;100262.94;;;9.56;100.00
75640;BME280;64233;51.486;6.332;2023-10-31T08:42:45;100263.72;;;9.56;100.00
75640;BME280;64233;51.486;6.332;2023-10-31T08:45:10;100265.34;;;9.57;100.00
75640;BME280;64233;51.486;6.332;2023-10-31T08:47:36;100265.03;;;9.48;100.00
75640;BME280;64233;51.486;6.332;2023-10-31T08:50:01;100262.63;;;9.52;100.00
75640;BME280;64233;51.486;6.332;2023-10-31T08:52:26;100264.44;;;9.41;100.00
75640;BME280;64233;51.486;6.332;2023-10-31T08:54:52;100275.09;;;9.36;100.00
75640;BME280;64233;51.486;6.332;2023-10-31T08:57:17;100276.22;;;9.45;100.00
75640;BME280;64233;51.486;6.332;2023-10-31T08:59:42;100280.59;;;9.57;100.00
75640;BME280;64233;51.486;6.332;2023-10-31T09:02:08;100286.31;;;9.65;100.00
75640;BME280;64233;51.486;6.332;2023-10-31T09:04:33;100287.06;;;9.61;100.00
75640;BME280;64233;51.486;6.332;2023-10-31T09:06:58;100298.75;;;9.82;100.00
75640;BME280;64233;51.486;6.332;2023-10-31T09:09:24;100298.28;;;9.90;100.00
75640;BME280;64233;51.486;6.332;2023-10-31T09:11:49;100302.59;;;9.91;100.00
75640;BME280;64233;51.486;6.332;2023-10-31T09:14:14;100301.75;;;9.86;100.00
75640;BME280;64233;51.486;6.332;2023-10-31T09:16:39;100299.28;;;9.79;100.00
75640;BME280;64233;51.486;6.332;2023-10-31T09:19:05;100306.03;;;9.87;100.00
75640;BME280;64233;51.486;6.332;2023-10-31T09:21:30;100311.75;;;10.00;100.00
75640;BME280;64233;51.486;6.332;2023-10-31T09:23:55;100319.50;;;9.97;100.00
75640;BME280;64233;51.486;6.332;2023-10-31T09:26:20;100321.16;;;10.03;100.00
75640;BME280;64233;51.486;6.332;2023-10-31T09:28:46;100322.41;;;9.90;100.00
75640;BME280;64233;51.486;6.332;2023-10-31T09:31:16;100320.75;;;9.84;100.00
75640;BME280;64233;51.486;6.332;2023-10-31T09:33:42;100324.03;;;9.91;100.00
75640;BME280;64233;51.486;6.332;2023-10-31T09:36:08;100338.28;;;9.97;100.00
75640;BME280;64233;51.486;6.332;2023-10-31T09:38:33;100341.03;;;10.07;100.00
75640;BME280;64233;51.486;6.332;2023-10-31T09:40:58;100332.97;;;10.07;100.00
75640;BME280;64233;51.486;6.332;2023-10-31T09:43:24;100343.66;;;9.97;100.00
75640;BME280;64233;51.486;6.332;2023-10-31T09:45:49;100340.19;;;10.02;100.00
75640;BME280;64233;51.486;6.332;2023-10-31T09:48:15;100333.44;;;9.94;100.00
75640;BME280;64233;51.486;6.332;2023-10-31T09:50:41;100344.13;;;9.89;100.00
75640;BME280;64233;51.486;6.332;2023-10-31T09:53:07;100341.63;;;9.77;100.00
75640;BME280;64233;51.486;6.332;2023-10-31T09:55:33;100345.41;;;9.81;100.00
75640;BME280;64233;51.486;6.332;2023-10-31T09:57:59;100355.34;;;9.86;100.00
75640;BME280;64233;51.486;6.332;2023-10-31T10:00:25;100360.50;;;9.92;100.00
75640;BME280;64233;51.486;6.332;2023-10-31T10:02:51;100357.31;;;9.95;100.00
75640;BME280;64233;51.486;6.332;2023-10-31T10:05:16;100370.56;;;10.12;100.00
75640;BME280;64233;51.486;6.332;2023-10-31T10:07:42;100375.47;;;10.21;100.00
75640;BME280;64233;51.486;6.332;2023-10-31T10:10:12;100377.44;;;10.36;100.00
75640;BME280;64233;51.486;6.332;2023-10-31T10:12:37;100375.16;;;10.17;100.00
75640;BME280;64233;51.486;6.332;2023-10-31T10:15:03;100367.38;;;10.15;100.00
75640;BME280;64233;51.486;6.332;2023-10-31T10:17:29;100361.16;;;10.10;100.00
75640;BME280;64233;51.486;6.332;2023-10-31T10:20:08;100374.63;;;10.20;100.00
75640;BME280;64233;51.486;6.332;2023-10-31T10:22:41;100376.59;;;10.30;100.00
75640;BME280;64233;51.486;6.332;2023-10-31T10:25:10;100375.47;;;10.26;100.00
75640;BME280;64233;51.486;6.332;2023-10-31T10:27:37;100371.22;;;10.30;100.00
75640;BME280;64233;51.486;6.332;2023-10-31T10:30:03;100374.50;;;10.37;100.00
75640;BME280;64233;51.486;6.332;2023-10-31T10:32:29;100376.66;;;10.35;100.00
75640;BME280;64233;51.486;6.332;2023-10-31T10:34:55;100374.19;;;10.33;100.00
75640;BME280;64233;51.486;6.332;2023-10-31T10:37:20;100373.19;;;10.40;100.00
75640;BME280;64233;51.486;6.332;2023-10-31T10:39:51;100358.94;;;10.34;100.00
75640;BME280;64233;51.486;6.332;2023-10-31T10:44:53;100364.44;;;10.55;100.00
75640;BME280;64233;51.486;6.332;2023-10-31T10:47:23;100353.69;;;10.55;100.00
75640;BME280;64233;51.486;6.332;2023-10-31T10:49:50;100342.69;;;10.61;100.00
75640;BME280;64233;51.486;6.332;2023-10-31T10:52:25;100342.13;;;10.54;100.00
75640;BME280;64233;51.486;6.332;2023-10-31T10:55:03;100345.66;;;10.55;100.00
75640;BME280;64233;51.486;6.332;2023-10-31T10:57:42;100340.28;;;10.60;100.00
75640;BME280;64233;51.486;6.332;2023-10-31T11:00:12;100346.78;;;10.69;100.00
75640;BME280;64233;51.486;6.332;2023-10-31T11:02:39;100361.56;;;10.77;100.00
75640;BME280;64233;51.486;6.332;2023-10-31T11:05:09;100349.19;;;10.71;100.00
75640;BME280;64233;51.486;6.332;2023-10-31T11:07:36;100346.03;;;10.79;100.00
75640;BME280;64233;51.486;6.332;2023-10-31T11:10:02;100334.47;;;10.83;100.00
75640;BME280;64233;51.486;6.332;2023-10-31T11:12:30;100333.94;;;10.87;100.00
75640;BME280;64233;51.486;6.332;2023-10-31T11:14:57;100327.56;;;11.03;100.00
75640;BME280;64233;51.486;6.332;2023-10-31T11:17:26;100320.03;;;10.95;100.00
75640;BME280;64233;51.486;6.332;2023-10-31T11:19:54;100314.91;;;10.93;100.00
75640;BME280;64233;51.486;6.332;2023-10-31T11:22:20;100309.25;;;10.90;100.00
75640;BME280;64233;51.486;6.332;2023-10-31T11:24:48;100302.25;;;10.89;100.00
75640;BME280;64233;51.486;6.332;2023-10-31T11:27:14;100303.06;;;10.84;100.00
75640;BME280;64233;51.486;6.332;2023-10-31T11:29:39;100303.88;;;10.90;100.00
75640;BME280;64233;51.486;6.332;2023-10-31T11:32:08;100308.22;;;10.96;100.00
75640;BME280;64233;51.486;6.332;2023-10-31T11:34:37;100299.91;;;11.08;100.00
75640;BME280;64233;51.486;6.332;2023-10-31T11:37:25;100301.53;;;11.19;100.00
75640;BME280;64233;51.486;6.332;2023-10-31T11:42:52;100278.94;;;10.99;100.00
75640;BME280;64233;51.486;6.332;2023-10-31T11:45:37;100273.03;;;10.97;100.00
75640;BME280;64233;51.486;6.332;2023-10-31T11:48:06;100260.09;;;10.84;100.00
75640;BME280;64233;51.486;6.332;2023-10-31T11:50:32;100251.53;;;10.82;100.00
75640;BME280;64233;51.486;6.332;2023-10-31T11:53:06;100252.28;;;10.77;100.00
75640;BME280;64233;51.486;6.332;2023-10-31T11:55:33;100259.31;;;10.83;100.00
75640;BME280;64233;51.486;6.332;2023-10-31T11:58:19;100263.09;;;10.98;100.00
75640;BME280;64233;51.486;6.332;2023-10-31T12:00:49;100265.50;;;10.99;100.00
75640;BME280;64233;51.486;6.332;2023-10-31T12:03:16;100256.38;;;11.00;100.00
75640;BME280;64233;51.486;6.332;2023-10-31T12:05:58;100252.38;;;11.13;100.00
75640;BME280;64233;51.486;6.332;2023-10-31T12:08:31;100242.94;;;11.06;100.00
75640;BME280;64233;51.486;6.332;2023-10-31T12:13:29;100245.94;;;11.35;100.00
75640;BME280;64233;51.486;6.332;2023-10-31T12:15:55;100223.91;;;11.17;100.00
75640;BME280;64233;51.486;6.332;2023-10-31T12:18:20;100223.38;;;11.36;100.00
75640;BME280;64233;51.486;6.332;2023-10-31T12:20:50;100213.41;;;11.52;100.00
75640;BME280;64233;51.486;6.332;2023-10-31T12:23:15;100212.59;;;11.57;100.00
75640;BME280;64233;51.486;6.332;2023-10-31T12:25:49;100201.31;;;11.60;100.00
75640;BME280;64233;51.486;6.332;2023-10-31T12:28:18;100199.66;;;11.74;100.00
75640;BME280;64233;51.486;6.332;2023-10-31T12:30:48;100185.97;;;11.65;100.00
75640;BME280;64233;51.486;6.332;2023-10-31T12:33:14;100188.41;;;11.67;100.00
75640;BME280;64233;51.486;6.332;2023-10-31T12:35:40;100193.19;;;11.80;100.00
75640;BME280;64233;51.486;6.332;2023-10-31T12:38:07;100195.34;;;11.78;100.00
75640;BME280;64233;51.486;6.332;2023-10-31T12:40:33;100189.16;;;11.88;100.00
75640;BME280;64233;51.486;6.332;2023-10-31T12:42:59;100178.91;;;11.90;100.00
75640;BME280;64233;51.486;6.332;2023-10-31T12:45:24;100166.00;;;12.02;100.00
75640;BME280;64233;51.486;6.332;2023-10-31T12:48:03;100171.31;;;12.18;100.00
75640;BME280;64233;51.486;6.332;2023-10-31T12:50:33;100144.41;;;12.13;100.00
75640;BME280;64233;51.486;6.332;2023-10-31T12:52:59;100127.22;;;12.03;100.00